Time,TemperatureF,DewpointF,PressureIn,WindDirection,WindDirectionDegrees,WindSpeedMPH,WindSpeedGustMPH,Humidity,HourlyPrecipIn,Conditions,Clouds,dailyrainin,SoftwareType,DateUTC
2013-09-15 00:02:00,55.1,51.0,29.77,NNE,23,1.1,2.7,86,0.00,,,0.00,WUHU216HW,2013-09-15 07:02:00,
2013-09-15 00:07:00,55.1,51.2,29.77,North,0,0.0,2.2,87,0.00,,,0.00,WUHU216HW,2013-09-15 07:07:00,
2013-09-15 00:12:00,55.1,51.0,29.77,NW,315,0.7,1.3,86,0.00,,,0.00,WUHU216HW,2013-09-15 07:12:00,
2013-09-15 00:17:00,55.1,51.2,29.77,ESE,113,0.7,1.8,87,0.00,,,0.00,WUHU216HW,2013-09-15 07:17:00,
2013-09-15 00:22:00,55.4,51.6,29.77,North,0,0.4,1.8,87,0.00,,,0.00,WUHU216HW,2013-09-15 07:22:00,
2013-09-15 00:27:00,55.3,51.4,29.77,North,0,0.4,0.7,87,0.00,,,0.00,WUHU216HW,2013-09-15 07:27:00,
2013-09-15 00:32:00,55.3,51.4,29.77,North,0,0.0,0.4,87,0.00,,,0.00,WUHU216HW,2013-09-15 07:32:00,
2013-09-15 00:37:00,55.3,51.4,29.77,ESE,113,0.7,0.7,87,0.00,,,0.00,WUHU216HW,2013-09-15 07:37:00,
2013-09-15 00:42:00,55.1,51.2,29.77,ENE,68,0.7,0.9,87,0.00,,,0.00,WUHU216HW,2013-09-15 07:42:00,
2013-09-15 00:47:00,55.1,51.2,29.77,NW,315,1.1,1.1,87,0.00,,,0.00,WUHU216HW,2013-09-15 07:47:00,
2013-09-15 00:52:00,55.1,51.2,29.77,East,90,1.6,1.6,87,0.00,,,0.00,WUHU216HW,2013-09-15 07:52:00,
2013-09-15 00:57:00,55.1,51.2,29.77,SSW,203,1.1,1.6,87,0.00,,,0.00,WUHU216HW,2013-09-15 07:57:00,
2013-09-15 01:02:00,55.1,51.6,29.77,SE,135,0.4,1.3,88,0.00,,,0.00,WUHU216HW,2013-09-15 08:02:00,
2013-09-15 01:07:00,55.1,51.6,29.77,North,0,1.3,1.3,88,0.00,,,0.00,WUHU216HW,2013-09-15 08:07:00,
2013-09-15 01:12:00,54.9,51.4,29.77,North,0,0.4,1.3,88,0.00,,,0.00,WUHU216HW,2013-09-15 08:12:00,
2013-09-15 01:17:00,54.7,51.2,29.77,NNE,23,0.9,0.9,88,0.00,,,0.00,WUHU216HW,2013-09-15 08:17:00,
2013-09-15 01:22:00,54.7,51.2,29.77,NNE,23,0.7,0.9,88,0.00,,,0.00,WUHU216HW,2013-09-15 08:22:00,
2013-09-15 01:27:00,54.5,51.0,29.77,NNW,338,0.4,0.7,88,0.00,,,0.00,WUHU216HW,2013-09-15 08:27:00,
2013-09-15 01:32:00,54.5,51.0,29.77,NE,45,1.1,1.1,88,0.00,,,0.00,WUHU216HW,2013-09-15 08:32:00,
2013-09-15 01:37:00,54.4,50.9,29.78,NNW,338,0.0,1.1,88,0.00,,,0.00,WUHU216HW,2013-09-15 08:37:00,
2013-09-15 01:42:00,54.4,50.9,29.78,ESE,113,0.7,0.9,88,0.00,,,0.00,WUHU216HW,2013-09-15 08:42:00,
2013-09-15 01:47:00,54.4,50.9,29.78,NNE,23,1.1,1.1,88,0.00,,,0.00,WUHU216HW,2013-09-15 08:47:00,
2013-09-15 01:52:00,54.4,50.9,29.78,NNE,23,3.8,3.8,88,0.00,,,0.00,WUHU216HW,2013-09-15 08:52:00,
2013-09-15 01:57:00,54.5,51.3,29.78,NNE,23,1.3,3.8,89,0.00,,,0.00,WUHU216HW,2013-09-15 08:57:00,
2013-09-15 02:02:00,54.7,51.5,29.78,NE,45,1.1,2.2,89,0.00,,,0.00,WUHU216HW,2013-09-15 09:02:00,
2013-09-15 02:07:00,54.7,51.5,29.78,ENE,68,1.1,2.2,89,0.00,,,0.00,WUHU216HW,2013-09-15 09:07:00,
2013-09-15 02:12:00,54.7,51.5,29.77,NE,45,2.0,3.1,89,0.00,,,0.00,WUHU216HW,2013-09-15 09:12:00,
2013-09-15 02:17:00,54.7,51.5,29.78,North,0,1.6,3.1,89,0.00,,,0.00,WUHU216HW,2013-09-15 09:17:00,
2013-09-15 02:22:00,54.7,51.5,29.77,NNE,23,2.5,3.8,89,0.00,,,0.00,WUHU216HW,2013-09-15 09:22:00,
2013-09-15 02:27:00,54.7,51.5,29.77,NW,315,0.2,3.8,89,0.00,,,0.00,WUHU216HW,2013-09-15 09:27:00,
2013-09-15 02:32:00,54.7,51.5,29.77,North,0,1.1,1.1,89,0.00,,,0.00,WUHU216HW,2013-09-15 09:32:00,
2013-09-15 02:37:00,54.5,51.3,29.77,NNE,23,1.6,1.6,89,0.00,,,0.00,WUHU216HW,2013-09-15 09:37:00,
2013-09-15 02:42:00,54.4,51.2,29.77,NNE,23,0.7,1.6,89,0.00,,,0.00,WUHU216HW,2013-09-15 09:42:00,
2013-09-15 02:47:00,54.4,51.2,29.77,ENE,68,0.7,1.6,89,0.00,,,0.00,WUHU216HW,2013-09-15 09:47:00,
2013-09-15 02:52:00,54.4,51.2,29.77,East,90,0.9,1.1,89,0.00,,,0.00,WUHU216HW,2013-09-15 09:52:00,
2013-09-15 02:57:00,54.4,51.2,29.77,East,90,1.1,1.1,89,0.00,,,0.00,WUHU216HW,2013-09-15 09:57:00,
2013-09-15 03:02:00,54.2,51.0,29.77,North,0,0.2,2.9,89,0.00,,,0.00,WUHU216HW,2013-09-15 10:02:00,
2013-09-15 03:07:00,54.0,50.9,29.77,NNE,23,0.9,2.9,89,0.00,,,0.00,WUHU216HW,2013-09-15 10:07:00,
2013-09-15 03:12:00,54.2,51.0,29.77,North,0,0.7,2.7,89,0.00,,,0.00,WUHU216HW,2013-09-15 10:12:00,
2013-09-15 03:17:00,54.2,51.0,29.77,North,0,0.0,1.1,89,0.00,,,0.00,WUHU216HW,2013-09-15 10:17:00,
2013-09-15 03:22:00,54.0,50.9,29.77,North,0,0.0,1.1,89,0.00,,,0.00,WUHU216HW,2013-09-15 10:22:00,
2013-09-15 03:27:00,53.8,50.7,29.77,NNW,338,0.0,0.4,89,0.00,,,0.00,WUHU216HW,2013-09-15 10:27:00,
2013-09-15 03:32:00,53.8,50.7,29.78,NNE,23,0.7,0.7,89,0.00,,,0.00,WUHU216HW,2013-09-15 10:32:00,
2013-09-15 03:37:00,53.6,50.5,29.78,East,90,1.1,1.1,89,0.00,,,0.00,WUHU216HW,2013-09-15 10:37:00,
2013-09-15 03:42:00,53.6,50.5,29.78,East,90,0.4,1.8,89,0.00,,,0.00,WUHU216HW,2013-09-15 10:42:00,
2013-09-15 03:47:00,53.6,50.5,29.78,ENE,68,1.1,1.8,89,0.00,,,0.00,WUHU216HW,2013-09-15 10:47:00,
2013-09-15 03:52:00,53.6,50.5,29.78,NNE,23,0.4,1.3,89,0.00,,,0.00,WUHU216HW,2013-09-15 10:52:00,
2013-09-15 03:57:00,53.6,50.5,29.78,NNE,23,0.9,1.8,89,0.00,,,0.00,WUHU216HW,2013-09-15 10:57:00,
2013-09-15 04:02:00,53.8,50.7,29.78,NNE,23,1.1,1.8,89,0.00,,,0.00,WUHU216HW,2013-09-15 11:02:00,
2013-09-15 04:07:00,54.0,51.1,29.78,NE,45,2.5,2.7,90,0.00,,,0.00,WUHU216HW,2013-09-15 11:07:00,
2013-09-15 04:12:00,54.4,51.8,29.78,ENE,68,1.1,3.1,91,0.00,,,0.00,WUHU216HW,2013-09-15 11:12:00,
2013-09-15 04:17:00,54.4,51.5,29.78,ENE,68,1.8,3.1,90,0.00,,,0.00,WUHU216HW,2013-09-15 11:17:00,
2013-09-15 04:22:00,54.4,51.5,29.78,NE,45,1.8,2.0,90,0.00,,,0.00,WUHU216HW,2013-09-15 11:22:00,
2013-09-15 04:27:00,54.2,51.3,29.78,NNE,23,2.0,2.5,90,0.00,,,0.00,WUHU216HW,2013-09-15 11:27:00,
2013-09-15 04:32:00,54.2,51.3,29.78,NNE,23,1.6,2.5,90,0.00,,,0.00,WUHU216HW,2013-09-15 11:32:00,
2013-09-15 04:37:00,54.2,51.3,29.78,NNE,23,1.8,1.8,90,0.00,,,0.00,WUHU216HW,2013-09-15 11:37:00,
2013-09-15 04:42:00,54.4,51.5,29.78,ENE,68,3.4,3.4,90,0.00,,,0.00,WUHU216HW,2013-09-15 11:42:00,
2013-09-15 04:47:00,54.4,51.5,29.78,East,90,3.4,3.6,90,0.00,,,0.00,WUHU216HW,2013-09-15 11:47:00,
2013-09-15 04:52:00,54.4,51.5,29.78,ENE,68,1.1,3.6,90,0.00,,,0.00,WUHU216HW,2013-09-15 11:52:00,
2013-09-15 04:57:00,54.5,51.7,29.79,North,0,1.1,3.6,90,0.00,,,0.00,WUHU216HW,2013-09-15 11:57:00,
2013-09-15 05:02:00,54.4,51.5,29.79,North,0,1.6,2.2,90,0.00,,,0.00,WUHU216HW,2013-09-15 12:02:00,
2013-09-15 05:07:00,54.4,51.5,29.79,North,0,0.4,2.2,90,0.00,,,0.00,WUHU216HW,2013-09-15 12:07:00,
2013-09-15 05:12:00,54.5,51.7,29.79,NNW,338,0.0,0.4,90,0.00,,,0.00,WUHU216HW,2013-09-15 12:12:00,
2013-09-15 05:17:00,54.4,51.5,29.79,ESE,113,0.4,0.4,90,0.00,,,0.00,WUHU216HW,2013-09-15 12:17:00,
2013-09-15 05:22:00,54.4,51.2,29.78,SE,135,0.0,1.1,89,0.00,,,0.00,WUHU216HW,2013-09-15 12:22:00,
2013-09-15 05:27:00,54.4,51.2,29.79,NE,45,1.1,1.1,89,0.00,,,0.00,WUHU216HW,2013-09-15 12:27:00,
2013-09-15 05:32:00,54.2,51.0,29.78,East,90,0.4,1.8,89,0.00,,,0.00,WUHU216HW,2013-09-15 12:32:00,
2013-09-15 05:37:00,54.0,50.9,29.79,ENE,68,0.2,1.8,89,0.00,,,0.00,WUHU216HW,2013-09-15 12:37:00,
2013-09-15 05:42:00,54.0,50.9,29.79,North,0,0.9,0.9,89,0.00,,,0.00,WUHU216HW,2013-09-15 12:42:00,
2013-09-15 05:47:00,54.0,50.9,29.79,North,0,0.4,1.1,89,0.00,,,0.00,WUHU216HW,2013-09-15 12:47:00,
2013-09-15 05:52:00,54.2,51.0,29.79,NNE,23,2.0,2.0,89,0.00,,,0.00,WUHU216HW,2013-09-15 12:52:00,
2013-09-15 05:57:00,54.2,51.3,29.79,ENE,68,0.9,2.0,90,0.00,,,0.00,WUHU216HW,2013-09-15 12:57:00,
2013-09-15 06:02:00,54.2,51.3,29.79,East,90,0.4,1.6,90,0.00,,,0.00,WUHU216HW,2013-09-15 13:02:00,
2013-09-15 06:07:00,54.4,51.5,29.79,NE,45,0.7,1.6,90,0.00,,,0.00,WUHU216HW,2013-09-15 13:07:00,
2013-09-15 06:12:00,54.4,51.5,29.80,NNE,23,1.3,1.6,90,0.00,,,0.00,WUHU216HW,2013-09-15 13:12:00,
2013-09-15 06:17:00,54.5,51.7,29.80,NNE,23,1.1,2.0,90,0.00,,,0.00,WUHU216HW,2013-09-15 13:17:00,
2013-09-15 06:22:00,54.7,51.8,29.80,NE,45,0.7,2.0,90,0.00,,,0.00,WUHU216HW,2013-09-15 13:22:00,
2013-09-15 06:27:00,54.9,52.0,29.80,East,90,0.7,1.1,90,0.00,,,0.00,WUHU216HW,2013-09-15 13:27:00,
2013-09-15 06:32:00,54.9,52.0,29.80,ENE,68,0.7,1.1,90,0.00,,,0.00,WUHU216HW,2013-09-15 13:32:00,
2013-09-15 06:37:00,55.1,52.2,29.80,NE,45,0.2,0.9,90,0.00,,,0.00,WUHU216HW,2013-09-15 13:37:00,
2013-09-15 06:42:00,55.1,52.2,29.80,NNE,23,0.9,1.3,90,0.00,,,0.00,WUHU216HW,2013-09-15 13:42:00,
2013-09-15 06:47:00,55.1,52.2,29.80,East,90,2.0,2.0,90,0.00,,,0.00,WUHU216HW,2013-09-15 13:47:00,
2013-09-15 06:52:00,55.1,52.2,29.80,NE,45,2.2,2.2,90,0.00,,,0.00,WUHU216HW,2013-09-15 13:52:00,
2013-09-15 06:57:00,55.1,52.2,29.80,NNE,23,1.1,2.2,90,0.00,,,0.00,WUHU216HW,2013-09-15 13:57:00,
2013-09-15 07:02:00,54.9,52.0,29.81,NNE,23,1.3,2.2,90,0.00,,,0.00,WUHU216HW,2013-09-15 14:02:00,
2013-09-15 07:07:00,54.9,52.0,29.81,North,0,1.3,1.6,90,0.00,,,0.00,WUHU216HW,2013-09-15 14:07:00,
2013-09-15 07:12:00,54.9,52.0,29.81,North,0,0.2,1.6,90,0.00,,,0.00,WUHU216HW,2013-09-15 14:12:00,
2013-09-15 07:17:00,54.7,51.5,29.81,ENE,68,0.2,1.6,89,0.00,,,0.00,WUHU216HW,2013-09-15 14:17:00,
2013-09-15 07:22:00,54.7,51.5,29.81,NE,45,0.4,0.9,89,0.00,,,0.00,WUHU216HW,2013-09-15 14:22:00,
2013-09-15 07:27:00,54.5,51.3,29.81,NE,45,0.4,0.9,89,0.00,,,0.00,WUHU216HW,2013-09-15 14:27:00,
2013-09-15 07:32:00,54.7,51.5,29.81,NE,45,0.0,0.9,89,0.00,,,0.00,WUHU216HW,2013-09-15 14:32:00,
2013-09-15 07:37:00,54.7,51.5,29.82,NE,45,0.0,0.4,89,0.00,,,0.00,WUHU216HW,2013-09-15 14:37:00,
2013-09-15 07:42:00,54.7,51.5,29.82,SE,135,0.4,1.3,89,0.00,,,0.00,WUHU216HW,2013-09-15 14:42:00,
2013-09-15 07:47:00,54.9,51.7,29.82,ENE,68,0.2,1.3,89,0.00,,,0.00,WUHU216HW,2013-09-15 14:47:00,
2013-09-15 07:52:00,55.1,51.8,29.82,NE,45,0.0,0.4,89,0.00,,,0.00,WUHU216HW,2013-09-15 14:52:00,
2013-09-15 07:57:00,55.4,52.2,29.82,North,0,0.0,0.2,89,0.00,,,0.00,WUHU216HW,2013-09-15 14:57:00,
2013-09-15 08:02:00,55.8,52.9,29.82,NNE,23,0.0,0.4,90,0.00,,,0.00,WUHU216HW,2013-09-15 15:02:00,
2013-09-15 08:07:00,56.2,52.9,29.82,SW,225,1.3,2.5,89,0.00,,,0.00,WUHU216HW,2013-09-15 15:07:00,
2013-09-15 08:12:00,56.5,53.3,29.82,SSW,203,1.3,2.5,89,0.00,,,0.00,WUHU216HW,2013-09-15 15:12:00,
2013-09-15 08:17:00,56.7,53.2,29.82,SW,225,4.5,4.5,88,0.00,,,0.00,WUHU216HW,2013-09-15 15:17:00,
2013-09-15 08:22:00,57.1,53.6,29.82,WNW,293,2.5,4.5,88,0.00,,,0.00,WUHU216HW,2013-09-15 15:22:00,
2013-09-15 08:27:00,57.2,53.7,29.82,ENE,68,0.2,4.5,88,0.00,,,0.00,WUHU216HW,2013-09-15 15:27:00,
2013-09-15 08:32:00,57.6,53.7,29.83,SSW,203,0.9,2.9,87,0.00,,,0.00,WUHU216HW,2013-09-15 15:32:00,
2013-09-15 08:37:00,58.0,54.1,29.83,SSW,203,1.8,2.0,87,0.00,,,0.00,WUHU216HW,2013-09-15 15:37:00,
2013-09-15 08:42:00,58.0,54.1,29.83,SW,225,3.4,6.0,87,0.00,,,0.00,WUHU216HW,2013-09-15 15:42:00,
2013-09-15 08:47:00,58.1,54.0,29.83,SW,225,7.4,7.4,86,0.00,,,0.00,WUHU216HW,2013-09-15 15:47:00,
2013-09-15 08:52:00,58.3,54.5,29.83,West,270,5.4,7.4,87,0.00,,,0.00,WUHU216HW,2013-09-15 15:52:00,
2013-09-15 08:57:00,58.5,54.4,29.83,West,270,5.6,6.3,86,0.00,,,0.00,WUHU216HW,2013-09-15 15:57:00,
2013-09-15 09:02:00,58.7,54.2,29.83,WNW,293,6.3,6.3,85,0.00,,,0.00,WUHU216HW,2013-09-15 16:02:00,
2013-09-15 09:07:00,58.7,54.2,29.84,WSW,248,1.8,6.3,85,0.00,,,0.00,WUHU216HW,2013-09-15 16:07:00,
2013-09-15 09:12:00,59.0,54.5,29.84,WSW,248,1.8,5.4,85,0.00,,,0.00,WUHU216HW,2013-09-15 16:12:00,
2013-09-15 09:17:00,59.4,54.9,29.84,SW,225,0.2,2.2,85,0.00,,,0.00,WUHU216HW,2013-09-15 16:17:00,
2013-09-15 09:22:00,59.4,54.9,29.84,WNW,293,0.7,3.1,85,0.00,,,0.00,WUHU216HW,2013-09-15 16:22:00,
2013-09-15 09:27:00,59.8,54.9,29.84,North,0,1.1,4.3,84,0.00,,,0.00,WUHU216HW,2013-09-15 16:27:00,
2013-09-15 09:32:00,59.9,54.8,29.84,NNW,338,0.4,4.3,83,0.00,,,0.00,WUHU216HW,2013-09-15 16:32:00,
2013-09-15 09:37:00,60.1,55.0,29.84,WSW,248,1.6,2.9,83,0.00,,,0.00,WUHU216HW,2013-09-15 16:37:00,
2013-09-15 09:42:00,60.1,55.0,29.84,WNW,293,0.7,1.6,83,0.00,,,0.00,WUHU216HW,2013-09-15 16:42:00,
2013-09-15 09:47:00,61.0,55.9,29.84,ESE,113,4.3,4.3,83,0.00,,,0.00,WUHU216HW,2013-09-15 16:47:00,
2013-09-15 09:52:00,62.6,56.7,29.84,SSE,158,1.6,4.3,81,0.00,,,0.00,WUHU216HW,2013-09-15 16:52:00,
2013-09-15 09:57:00,64.6,58.3,29.84,SSE,158,0.2,2.7,80,0.00,,,0.00,WUHU216HW,2013-09-15 16:57:00,
2013-09-15 10:02:00,67.0,57.6,29.84,ESE,113,2.2,2.5,72,0.00,,,0.00,WUHU216HW,2013-09-15 17:02:00,
2013-09-15 10:07:00,67.9,58.1,29.84,South,180,2.7,2.7,71,0.00,,,0.00,WUHU216HW,2013-09-15 17:07:00,
2013-09-15 10:12:00,68.4,57.4,29.84,SSE,158,2.7,3.4,68,0.00,,,0.00,WUHU216HW,2013-09-15 17:12:00,
2013-09-15 10:17:00,68.8,58.1,29.84,East,90,1.6,3.4,69,0.00,,,0.00,WUHU216HW,2013-09-15 17:17:00,
2013-09-15 10:22:00,69.1,58.1,29.84,ESE,113,3.4,3.4,68,0.00,,,0.00,WUHU216HW,2013-09-15 17:22:00,
2013-09-15 10:27:00,69.3,57.9,29.84,NW,315,1.3,3.4,67,0.00,,,0.00,WUHU216HW,2013-09-15 17:27:00,
2013-09-15 10:32:00,68.8,57.3,29.84,NE,45,1.3,2.7,67,0.00,,,0.00,WUHU216HW,2013-09-15 17:32:00,
2013-09-15 10:37:00,68.8,56.9,29.84,NNE,23,2.5,2.5,66,0.00,,,0.00,WUHU216HW,2013-09-15 17:37:00,
2013-09-15 10:42:00,68.8,57.3,29.84,East,90,1.1,2.5,67,0.00,,,0.00,WUHU216HW,2013-09-15 17:42:00,
2013-09-15 10:47:00,68.8,56.9,29.84,WNW,293,1.6,4.0,66,0.00,,,0.00,WUHU216HW,2013-09-15 17:47:00,
2013-09-15 10:52:00,69.1,57.2,29.84,West,270,2.5,4.0,66,0.00,,,0.00,WUHU216HW,2013-09-15 17:52:00,
2013-09-15 10:57:00,69.5,57.2,29.84,West,270,3.8,5.6,65,0.00,,,0.00,WUHU216HW,2013-09-15 17:57:00,
2013-09-15 11:02:00,69.8,57.1,29.84,WNW,293,3.4,5.6,64,0.00,,,0.00,WUHU216HW,2013-09-15 18:02:00,
2013-09-15 11:07:00,69.8,57.5,29.84,NW,315,3.1,4.9,65,0.00,,,0.00,WUHU216HW,2013-09-15 18:07:00,
2013-09-15 11:12:00,69.8,57.5,29.84,WSW,248,4.7,4.9,65,0.00,,,0.00,WUHU216HW,2013-09-15 18:12:00,
2013-09-15 11:17:00,69.8,57.1,29.84,WNW,293,4.7,4.7,64,0.00,,,0.00,WUHU216HW,2013-09-15 18:17:00,
2013-09-15 11:22:00,70.0,57.2,29.84,WNW,293,2.9,4.7,64,0.00,,,0.00,WUHU216HW,2013-09-15 18:22:00,
2013-09-15 11:27:00,70.2,57.4,29.84,WSW,248,4.7,4.7,64,0.00,,,0.00,WUHU216HW,2013-09-15 18:27:00,
2013-09-15 11:32:00,70.4,57.2,29.84,WNW,293,5.1,5.8,63,0.00,,,0.00,WUHU216HW,2013-09-15 18:32:00,
2013-09-15 11:37:00,70.4,57.6,29.84,SW,225,4.7,5.8,64,0.00,,,0.00,WUHU216HW,2013-09-15 18:37:00,
2013-09-15 11:42:00,70.9,57.7,29.84,WNW,293,5.4,5.8,63,0.00,,,0.00,WUHU216HW,2013-09-15 18:42:00,
2013-09-15 11:47:00,70.9,57.2,29.84,West,270,4.9,6.5,62,0.00,,,0.00,WUHU216HW,2013-09-15 18:47:00,
2013-09-15 11:52:00,71.3,58.1,29.84,West,270,4.7,6.5,63,0.00,,,0.00,WUHU216HW,2013-09-15 18:52:00,
2013-09-15 11:57:00,71.5,58.2,29.84,WSW,248,1.1,5.1,63,0.00,,,0.00,WUHU216HW,2013-09-15 18:57:00,
2013-09-15 12:02:00,72.0,58.2,29.84,West,270,3.1,5.1,62,0.00,,,0.00,WUHU216HW,2013-09-15 19:02:00,
2013-09-15 12:08:00,72.4,59.1,29.84,WSW,248,3.1,4.7,63,0.00,,,0.00,WUHU216HW,2013-09-15 19:08:00,
2013-09-15 12:13:00,72.7,58.5,29.84,WNW,293,8.7,8.7,61,0.00,,,0.00,WUHU216HW,2013-09-15 19:13:00,
2013-09-15 12:18:00,73.1,58.3,29.84,West,270,7.6,8.7,60,0.00,,,0.00,WUHU216HW,2013-09-15 19:18:00,
2013-09-15 12:23:00,73.4,58.1,29.84,West,270,3.8,8.7,59,0.00,,,0.00,WUHU216HW,2013-09-15 19:23:00,
2013-09-15 12:28:00,73.8,59.5,29.83,WSW,248,0.9,6.7,61,0.00,,,0.00,WUHU216HW,2013-09-15 19:28:00,
2013-09-15 12:33:00,74.2,58.4,29.83,West,270,6.5,6.5,58,0.00,,,0.00,WUHU216HW,2013-09-15 19:33:00,
2013-09-15 12:38:00,74.3,59.0,29.83,West,270,5.8,6.5,59,0.00,,,0.00,WUHU216HW,2013-09-15 19:38:00,
2013-09-15 12:43:00,74.5,58.8,29.83,WSW,248,4.9,6.3,58,0.00,,,0.00,WUHU216HW,2013-09-15 19:43:00,
2013-09-15 12:48:00,74.7,59.4,29.83,WSW,248,3.4,6.3,59,0.00,,,0.00,WUHU216HW,2013-09-15 19:48:00,
2013-09-15 12:53:00,75.1,59.3,29.83,West,270,4.3,8.5,58,0.00,,,0.00,WUHU216HW,2013-09-15 19:53:00,
2013-09-15 12:58:00,75.2,59.0,29.83,West,270,6.0,8.5,57,0.00,,,0.00,WUHU216HW,2013-09-15 19:58:00,
2013-09-15 13:03:00,75.6,59.3,29.83,West,270,8.5,8.5,57,0.00,,,0.00,WUHU216HW,2013-09-15 20:03:00,
2013-09-15 13:08:00,76.0,59.1,29.83,West,270,7.8,8.5,56,0.00,,,0.00,WUHU216HW,2013-09-15 20:08:00,
2013-09-15 13:13:00,76.1,59.3,29.83,West,270,5.1,7.8,56,0.00,,,0.00,WUHU216HW,2013-09-15 20:13:00,
2013-09-15 13:18:00,76.3,59.0,29.83,West,270,4.0,6.5,55,0.00,,,0.00,WUHU216HW,2013-09-15 20:18:00,
2013-09-15 13:23:00,76.5,59.1,29.83,SSW,203,4.7,8.1,55,0.00,,,0.00,WUHU216HW,2013-09-15 20:23:00,
2013-09-15 13:28:00,76.9,59.4,29.83,WSW,248,3.6,8.1,55,0.00,,,0.00,WUHU216HW,2013-09-15 20:28:00,
2013-09-15 13:33:00,77.0,59.0,29.82,West,270,5.1,7.6,54,0.00,,,0.00,WUHU216HW,2013-09-15 20:33:00,
2013-09-15 13:38:00,77.2,59.8,29.83,WNW,293,5.4,8.1,55,0.00,,,0.00,WUHU216HW,2013-09-15 20:38:00,
2013-09-15 13:43:00,77.4,59.4,29.82,WSW,248,6.9,8.1,54,0.00,,,0.00,WUHU216HW,2013-09-15 20:43:00,
2013-09-15 13:48:00,77.6,59.6,29.82,WNW,293,4.5,6.9,54,0.00,,,0.00,WUHU216HW,2013-09-15 20:48:00,
2013-09-15 13:53:00,77.9,58.9,29.82,WSW,248,5.1,9.2,52,0.00,,,0.00,WUHU216HW,2013-09-15 20:53:00,
2013-09-15 13:58:00,78.1,59.0,29.82,WSW,248,6.0,9.2,52,0.00,,,0.00,WUHU216HW,2013-09-15 20:58:00,
2013-09-15 14:03:00,78.5,60.0,29.82,WNW,293,4.7,6.0,53,0.00,,,0.00,WUHU216HW,2013-09-15 21:03:00,
2013-09-15 14:08:00,78.7,59.1,29.82,WSW,248,4.7,8.5,51,0.00,,,0.00,WUHU216HW,2013-09-15 21:08:00,
2013-09-15 14:13:00,78.5,58.9,29.82,SW,225,4.7,10.1,51,0.00,,,0.00,WUHU216HW,2013-09-15 21:13:00,
2013-09-15 14:18:00,78.5,59.4,29.82,WSW,248,7.6,10.1,52,0.00,,,0.00,WUHU216HW,2013-09-15 21:18:00,
2013-09-15 14:23:00,78.8,59.2,29.82,WSW,248,6.3,8.5,51,0.00,,,0.00,WUHU216HW,2013-09-15 21:23:00,
2013-09-15 14:28:00,78.8,59.2,29.82,SSE,158,5.1,7.4,51,0.00,,,0.00,WUHU216HW,2013-09-15 21:28:00,
2013-09-15 14:33:00,79.2,59.1,29.81,NW,315,7.6,7.6,50,0.00,,,0.00,WUHU216HW,2013-09-15 21:33:00,
2013-09-15 14:38:00,79.2,59.5,29.81,WSW,248,8.5,8.5,51,0.00,,,0.00,WUHU216HW,2013-09-15 21:38:00,
2013-09-15 14:43:00,79.4,59.1,29.81,WSW,248,6.5,9.2,50,0.00,,,0.00,WUHU216HW,2013-09-15 21:43:00,
2013-09-15 14:44:00,79.4,59.1,29.81,West,270,8.5,9.2,50,0.00,,,0.00,WUHU216HW,2013-09-15 21:44:00,
2013-09-15 14:46:00,79.4,59.1,29.81,West,270,6.9,9.2,50,0.00,,,0.00,WUHU216HW,2013-09-15 21:46:00,
2013-09-15 14:47:00,79.4,59.7,29.81,West,270,8.7,9.2,51,0.00,,,0.00,WUHU216HW,2013-09-15 21:47:00,
2013-09-15 14:48:00,79.6,59.3,29.81,WNW,293,7.6,9.2,50,0.00,,,0.00,WUHU216HW,2013-09-15 21:48:00,
2013-09-15 14:49:00,79.6,59.3,29.81,SW,225,5.8,9.2,50,0.00,,,0.00,WUHU216HW,2013-09-15 21:49:00,
2013-09-15 14:51:00,79.6,59.3,29.81,NW,315,8.9,8.9,50,0.00,,,0.00,WUHU216HW,2013-09-15 21:51:00,
2013-09-15 14:52:00,79.6,59.9,29.81,West,270,4.7,8.9,51,0.00,,,0.00,WUHU216HW,2013-09-15 21:52:00,
2013-09-15 14:53:00,79.6,59.3,29.81,SW,225,6.3,8.9,50,0.00,,,0.00,WUHU216HW,2013-09-15 21:53:00,
2013-09-15 14:56:00,79.6,59.3,29.80,WNW,293,8.1,8.9,50,0.00,,,0.00,WUHU216HW,2013-09-15 21:56:00,
2013-09-15 14:58:00,79.6,58.7,29.81,West,270,8.5,8.9,49,0.00,,,0.00,WUHU216HW,2013-09-15 21:58:00,
2013-09-15 14:59:00,79.6,59.3,29.81,WSW,248,7.2,8.9,50,0.00,,,0.00,WUHU216HW,2013-09-15 21:59:00,
2013-09-15 15:00:00,79.6,59.3,29.81,SW,225,7.4,8.9,50,0.00,,,0.00,WUHU216HW,2013-09-15 22:00:00,
2013-09-15 15:01:00,79.6,59.3,29.80,WSW,248,2.9,8.5,50,0.00,,,0.00,WUHU216HW,2013-09-15 22:01:00,
2013-09-15 15:02:00,79.6,59.3,29.80,West,270,8.1,8.5,50,0.00,,,0.00,WUHU216HW,2013-09-15 22:02:00,
2013-09-15 15:05:00,79.6,58.7,29.80,WNW,293,5.8,8.5,49,0.00,,,0.00,WUHU216HW,2013-09-15 22:05:00,
2013-09-15 15:06:00,79.6,59.3,29.80,WNW,293,7.6,8.5,50,0.00,,,0.00,WUHU216HW,2013-09-15 22:06:00,
2013-09-15 15:16:00,79.6,58.7,29.80,SW,225,6.0,7.6,49,0.00,,,0.00,WUHU216HW,2013-09-15 22:16:00,
2013-09-15 15:21:00,79.7,59.5,29.80,WSW,248,12.1,12.1,50,0.00,,,0.00,WUHU216HW,2013-09-15 22:21:00,
2013-09-15 15:26:00,79.7,58.9,29.80,WNW,293,3.4,12.1,49,0.00,,,0.00,WUHU216HW,2013-09-15 22:26:00,
2013-09-15 15:31:00,79.9,59.0,29.80,SW,225,4.7,7.6,49,0.00,,,0.00,WUHU216HW,2013-09-15 22:31:00,
2013-09-15 15:36:00,79.9,59.0,29.80,WSW,248,4.7,8.1,49,0.00,,,0.00,WUHU216HW,2013-09-15 22:36:00,
2013-09-15 15:41:00,79.9,59.0,29.80,WNW,293,8.5,8.5,49,0.00,,,0.00,WUHU216HW,2013-09-15 22:41:00,
2013-09-15 15:46:00,79.9,58.4,29.80,WNW,293,4.0,8.5,48,0.00,,,0.00,WUHU216HW,2013-09-15 22:46:00,
2013-09-15 15:51:00,79.9,59.0,29.80,WSW,248,8.3,9.8,49,0.00,,,0.00,WUHU216HW,2013-09-15 22:51:00,
2013-09-15 15:56:00,79.7,58.9,29.80,WSW,248,3.8,9.8,49,0.00,,,0.00,WUHU216HW,2013-09-15 22:56:00,
2013-09-15 16:01:00,79.7,58.9,29.80,WNW,293,2.2,6.9,49,0.00,,,0.00,WUHU216HW,2013-09-15 23:01:00,
2013-09-15 16:06:00,79.7,58.9,29.80,WNW,293,4.9,6.0,49,0.00,,,0.00,WUHU216HW,2013-09-15 23:06:00,
2013-09-15 16:11:00,79.4,58.6,29.80,WSW,248,6.3,10.7,49,0.00,,,0.00,WUHU216HW,2013-09-15 23:11:00,
2013-09-15 16:16:00,79.2,59.1,29.79,WSW,248,5.1,10.7,50,0.00,,,0.00,WUHU216HW,2013-09-15 23:16:00,
2013-09-15 16:21:00,78.8,58.7,29.79,West,270,6.0,8.1,50,0.00,,,0.00,WUHU216HW,2013-09-15 23:21:00,
2013-09-15 16:26:00,78.7,59.1,29.79,NW,315,3.4,8.1,51,0.00,,,0.00,WUHU216HW,2013-09-15 23:26:00,
2013-09-15 16:31:00,78.3,58.7,29.80,West,270,4.9,7.4,51,0.00,,,0.00,WUHU216HW,2013-09-15 23:31:00,
2013-09-15 16:36:00,78.1,58.6,29.79,West,270,4.0,8.7,51,0.00,,,0.00,WUHU216HW,2013-09-15 23:36:00,
2013-09-15 16:41:00,77.8,58.8,29.79,WNW,293,2.0,8.7,52,0.00,,,0.00,WUHU216HW,2013-09-15 23:41:00,
2013-09-15 16:46:00,77.8,58.2,29.79,West,270,9.8,9.8,51,0.00,,,0.00,WUHU216HW,2013-09-15 23:46:00,
2013-09-15 16:51:00,77.4,58.4,29.79,West,270,5.4,9.8,52,0.00,,,0.00,WUHU216HW,2013-09-15 23:51:00,
2013-09-15 16:56:00,76.9,58.4,29.79,SSW,203,4.9,9.8,53,0.00,,,0.00,WUHU216HW,2013-09-15 23:56:00,
2013-09-15 17:01:00,76.9,58.4,29.79,West,270,7.6,7.6,53,0.00,,,0.00,WUHU216HW,2013-09-16 00:01:00,
2013-09-15 17:06:00,76.7,58.2,29.79,West,270,8.7,8.7,53,0.00,,,0.00,WUHU216HW,2013-09-16 00:06:00,
2013-09-15 17:11:00,76.3,58.0,29.79,WSW,248,5.8,9.2,53,0.00,,,0.00,WUHU216HW,2013-09-16 00:11:00,
2013-09-15 17:16:00,76.0,58.2,29.79,WSW,248,6.7,9.2,54,0.00,,,0.00,WUHU216HW,2013-09-16 00:16:00,
2013-09-15 17:21:00,75.6,58.3,29.79,SW,225,7.6,10.5,55,0.00,,,0.00,WUHU216HW,2013-09-16 00:21:00,
2013-09-15 17:26:00,75.2,58.0,29.79,WSW,248,4.0,10.5,55,0.00,,,0.00,WUHU216HW,2013-09-16 00:26:00,
2013-09-15 17:31:00,75.2,58.5,29.79,SSW,203,5.4,8.1,56,0.00,,,0.00,WUHU216HW,2013-09-16 00:31:00,
2013-09-15 17:36:00,74.9,58.2,29.79,West,270,4.5,8.5,56,0.00,,,0.00,WUHU216HW,2013-09-16 00:36:00,
2013-09-15 17:41:00,74.5,57.8,29.79,West,270,5.4,10.3,56,0.00,,,0.00,WUHU216HW,2013-09-16 00:41:00,
2013-09-15 17:46:00,74.3,57.6,29.79,SW,225,3.6,10.3,56,0.00,,,0.00,WUHU216HW,2013-09-16 00:46:00,
2013-09-15 17:51:00,74.0,57.7,29.79,West,270,4.7,7.6,57,0.00,,,0.00,WUHU216HW,2013-09-16 00:51:00,
2013-09-15 17:56:00,73.8,58.1,29.79,West,270,7.6,8.7,58,0.00,,,0.00,WUHU216HW,2013-09-16 00:56:00,
2013-09-15 18:01:00,73.4,57.7,29.79,WNW,293,6.3,8.7,58,0.00,,,0.00,WUHU216HW,2013-09-16 01:01:00,
2013-09-15 18:06:00,73.1,57.3,29.79,WNW,293,2.5,6.9,58,0.00,,,0.00,WUHU216HW,2013-09-16 01:06:00,
2013-09-15 18:11:00,72.7,57.5,29.79,WNW,293,8.9,8.9,59,0.00,,,0.00,WUHU216HW,2013-09-16 01:11:00,
2013-09-15 18:16:00,72.5,57.9,29.79,WSW,248,4.7,8.9,60,0.00,,,0.00,WUHU216HW,2013-09-16 01:16:00,
2013-09-15 18:21:00,72.2,57.5,29.80,NW,315,4.5,8.7,60,0.00,,,0.00,WUHU216HW,2013-09-16 01:21:00,
2013-09-15 18:26:00,71.6,57.5,29.80,WSW,248,11.4,11.4,61,0.00,,,0.00,WUHU216HW,2013-09-16 01:26:00,
2013-09-15 18:31:00,71.3,57.6,29.80,West,270,4.9,11.4,62,0.00,,,0.00,WUHU216HW,2013-09-16 01:31:00,
2013-09-15 18:36:00,70.9,57.7,29.80,West,270,7.4,11.6,63,0.00,,,0.00,WUHU216HW,2013-09-16 01:36:00,
2013-09-15 18:41:00,70.4,57.6,29.80,WNW,293,6.3,11.6,64,0.00,,,0.00,WUHU216HW,2013-09-16 01:41:00,
2013-09-15 18:46:00,70.2,57.9,29.80,South,180,2.5,10.1,65,0.00,,,0.00,WUHU216HW,2013-09-16 01:46:00,
2013-09-15 18:51:00,69.8,57.5,29.80,SW,225,5.4,10.1,65,0.00,,,0.00,WUHU216HW,2013-09-16 01:51:00,
2013-09-15 18:56:00,69.5,57.6,29.80,West,270,1.1,5.4,66,0.00,,,0.00,WUHU216HW,2013-09-16 01:56:00,
2013-09-15 19:01:00,69.3,57.4,29.80,WSW,248,2.2,5.1,66,0.00,,,0.00,WUHU216HW,2013-09-16 02:01:00,
2013-09-15 19:06:00,69.1,57.2,29.80,NW,315,1.1,3.6,66,0.00,,,0.00,WUHU216HW,2013-09-16 02:06:00,
2013-09-15 19:11:00,68.8,57.3,29.80,NW,315,0.4,3.1,67,0.00,,,0.00,WUHU216HW,2013-09-16 02:11:00,
2013-09-15 19:16:00,68.4,57.0,29.80,WNW,293,0.7,1.8,67,0.00,,,0.00,WUHU216HW,2013-09-16 02:16:00,
2013-09-15 19:21:00,68.2,57.2,29.80,WNW,293,4.0,4.0,68,0.00,,,0.00,WUHU216HW,2013-09-16 02:21:00,
2013-09-15 19:26:00,67.9,57.3,29.80,WNW,293,2.2,4.0,69,0.00,,,0.00,WUHU216HW,2013-09-16 02:26:00,
2013-09-15 19:31:00,67.5,57.4,29.80,WNW,293,1.8,5.6,70,0.00,,,0.00,WUHU216HW,2013-09-16 02:31:00,
2013-09-15 19:36:00,67.1,57.1,29.80,WNW,293,4.5,5.6,70,0.00,,,0.00,WUHU216HW,2013-09-16 02:36:00,
2013-09-15 19:41:00,67.0,57.2,29.81,WNW,293,2.7,4.5,71,0.00,,,0.00,WUHU216HW,2013-09-16 02:41:00,
2013-09-15 19:46:00,66.8,57.9,29.81,NNW,338,2.0,4.7,73,0.00,,,0.00,WUHU216HW,2013-09-16 02:46:00,
2013-09-15 19:51:00,66.6,57.7,29.81,West,270,1.8,4.7,73,0.00,,,0.00,WUHU216HW,2013-09-16 02:51:00,
2013-09-15 19:56:00,66.4,57.5,29.81,West,270,0.7,2.0,73,0.00,,,0.00,WUHU216HW,2013-09-16 02:56:00,
2013-09-15 20:01:00,66.1,57.5,29.81,NW,315,1.6,3.6,74,0.00,,,0.00,WUHU216HW,2013-09-16 03:01:00,
2013-09-15 20:06:00,65.9,57.3,29.81,West,270,1.6,3.6,74,0.00,,,0.00,WUHU216HW,2013-09-16 03:06:00,
2013-09-15 20:11:00,65.5,57.8,29.82,West,270,2.5,3.1,76,0.00,,,0.00,WUHU216HW,2013-09-16 03:11:00,
2013-09-15 20:16:00,65.3,58.0,29.81,West,270,5.4,5.6,77,0.00,,,0.00,WUHU216HW,2013-09-16 03:16:00,
2013-09-15 20:21:00,65.2,58.2,29.82,WSW,248,4.5,6.3,78,0.00,,,0.00,WUHU216HW,2013-09-16 03:21:00,
2013-09-15 20:26:00,65.2,58.2,29.82,WSW,248,5.8,6.3,78,0.00,,,0.00,WUHU216HW,2013-09-16 03:26:00,
2013-09-15 20:31:00,65.0,58.3,29.82,SW,225,6.5,11.0,79,0.00,,,0.00,WUHU216HW,2013-09-16 03:31:00,
2013-09-15 20:36:00,64.8,58.2,29.82,SW,225,2.2,11.0,79,0.00,,,0.00,WUHU216HW,2013-09-16 03:36:00,
2013-09-15 20:41:00,64.4,58.1,29.82,West,270,9.2,9.2,80,0.00,,,0.00,WUHU216HW,2013-09-16 03:41:00,
2013-09-15 20:46:00,64.4,58.1,29.82,SW,225,4.0,9.2,80,0.00,,,0.00,WUHU216HW,2013-09-16 03:46:00,
2013-09-15 20:51:00,64.1,57.4,29.83,WNW,293,1.6,8.9,79,0.00,,,0.00,WUHU216HW,2013-09-16 03:51:00,
2013-09-15 20:56:00,63.9,57.2,29.83,WNW,293,1.8,4.7,79,0.00,,,0.00,WUHU216HW,2013-09-16 03:56:00,
2013-09-15 21:01:00,63.7,57.4,29.83,NW,315,0.9,3.8,80,0.00,,,0.00,WUHU216HW,2013-09-16 04:01:00,
2013-09-15 21:02:00,63.7,57.4,29.83,NNW,338,3.6,3.8,80,0.00,,,0.00,WUHU216HW,2013-09-16 04:02:00,
2013-09-15 21:07:00,63.5,57.2,29.83,South,180,1.3,3.8,80,0.00,,,0.00,WUHU216HW,2013-09-16 04:07:00,
2013-09-15 21:12:00,63.4,57.1,29.83,West,270,2.7,3.1,80,0.00,,,0.00,WUHU216HW,2013-09-16 04:12:00,
2013-09-15 21:17:00,63.4,57.4,29.83,SW,225,1.8,2.7,81,0.00,,,0.00,WUHU216HW,2013-09-16 04:17:00,
2013-09-15 21:22:00,63.2,56.9,29.83,North,0,0.4,2.0,80,0.00,,,0.00,WUHU216HW,2013-09-16 04:22:00,
2013-09-15 21:27:00,63.0,57.1,29.83,WNW,293,3.1,4.9,81,0.00,,,0.00,WUHU216HW,2013-09-16 04:27:00,
2013-09-15 21:32:00,63.0,57.4,29.83,West,270,1.8,6.0,82,0.00,,,0.00,WUHU216HW,2013-09-16 04:32:00,
2013-09-15 21:37:00,62.8,57.3,29.83,West,270,4.5,6.0,82,0.00,,,0.00,WUHU216HW,2013-09-16 04:37:00,
2013-09-15 21:42:00,62.6,57.1,29.83,West,270,4.7,8.5,82,0.00,,,0.00,WUHU216HW,2013-09-16 04:42:00,
2013-09-15 21:47:00,62.5,57.3,29.83,WSW,248,4.3,8.5,83,0.00,,,0.00,WUHU216HW,2013-09-16 04:47:00,
2013-09-15 21:52:00,62.3,57.1,29.83,WNW,293,4.0,6.0,83,0.00,,,0.00,WUHU216HW,2013-09-16 04:52:00,
2013-09-15 21:57:00,62.1,56.9,29.83,West,270,0.7,5.4,83,0.00,,,0.00,WUHU216HW,2013-09-16 04:57:00,
2013-09-15 22:02:00,61.9,57.1,29.83,WNW,293,7.2,7.2,84,0.00,,,0.00,WUHU216HW,2013-09-16 05:02:00,
2013-09-15 22:07:00,61.9,57.3,29.83,West,270,6.0,8.3,85,0.00,,,0.00,WUHU216HW,2013-09-16 05:07:00,
2013-09-15 22:12:00,61.7,57.2,29.83,West,270,3.6,8.3,85,0.00,,,0.00,WUHU216HW,2013-09-16 05:12:00,
2013-09-15 22:17:00,61.6,57.1,29.83,NNW,338,0.4,5.6,85,0.00,,,0.00,WUHU216HW,2013-09-16 05:17:00,
2013-09-15 22:22:00,61.6,57.1,29.83,West,270,1.6,4.3,85,0.00,,,0.00,WUHU216HW,2013-09-16 05:22:00,
2013-09-15 22:27:00,61.4,56.5,29.83,NW,315,1.3,2.7,84,0.00,,,0.00,WUHU216HW,2013-09-16 05:27:00,
2013-09-15 22:32:00,61.4,56.9,29.83,NW,315,2.2,2.2,85,0.00,,,0.00,WUHU216HW,2013-09-16 05:32:00,
2013-09-15 22:37:00,61.2,56.7,29.83,WNW,293,6.0,6.0,85,0.00,,,0.00,WUHU216HW,2013-09-16 05:37:00,
2013-09-15 22:42:00,61.2,57.0,29.83,West,270,0.9,6.0,86,0.00,,,0.00,WUHU216HW,2013-09-16 05:42:00,
2013-09-15 22:47:00,61.0,56.9,29.83,SSW,203,0.7,3.4,86,0.00,,,0.00,WUHU216HW,2013-09-16 05:47:00,
2013-09-15 22:52:00,61.0,56.9,29.83,East,90,1.3,2.9,86,0.00,,,0.00,WUHU216HW,2013-09-16 05:52:00,
2013-09-15 22:57:00,60.8,56.7,29.83,West,270,1.8,4.7,86,0.00,,,0.00,WUHU216HW,2013-09-16 05:57:00,
2013-09-15 23:02:00,60.8,57.0,29.83,WNW,293,6.0,6.0,87,0.00,,,0.00,WUHU216HW,2013-09-16 06:02:00,
2013-09-15 23:07:00,61.0,57.2,29.83,NNW,338,1.1,6.0,87,0.00,,,0.00,WUHU216HW,2013-09-16 06:07:00,
2013-09-15 23:12:00,61.0,57.2,29.84,SW,225,1.3,5.1,87,0.00,,,0.00,WUHU216HW,2013-09-16 06:12:00,
2013-09-15 23:17:00,60.8,57.0,29.84,West,270,1.8,2.9,87,0.00,,,0.00,WUHU216HW,2013-09-16 06:17:00,
2013-09-15 23:22:00,60.8,57.0,29.84,WSW,248,2.7,2.9,87,0.00,,,0.00,WUHU216HW,2013-09-16 06:22:00,
2013-09-15 23:27:00,60.8,57.0,29.84,NW,315,0.9,3.6,87,0.00,,,0.00,WUHU216HW,2013-09-16 06:27:00,
2013-09-15 23:32:00,60.8,57.0,29.84,NW,315,2.5,3.6,87,0.00,,,0.00,WUHU216HW,2013-09-16 06:32:00,
2013-09-15 23:37:00,60.8,57.0,29.84,West,270,3.4,3.6,87,0.00,,,0.00,WUHU216HW,2013-09-16 06:37:00,
2013-09-15 23:42:00,60.8,57.0,29.84,WSW,248,3.1,8.1,87,0.00,,,0.00,WUHU216HW,2013-09-16 06:42:00,
2013-09-15 23:47:00,60.8,57.3,29.84,West,270,0.4,8.1,88,0.00,,,0.00,WUHU216HW,2013-09-16 06:47:00,
2013-09-15 23:52:00,60.8,57.3,29.84,NW,315,4.3,4.9,88,0.00,,,0.00,WUHU216HW,2013-09-16 06:52:00,
2013-09-15 23:57:00,60.8,57.3,29.84,WSW,248,1.3,4.5,88,0.00,,,0.00,WUHU216HW,2013-09-16 06:57:00,